Flight Track Log - Related Links

Times and Time Zones

All times are in EDT time to prevent confusion due to time zone crossing. See the USC105 flight status page for this flight to view local times or setup timezone preferences in your user account.

Time Position Orientation Groundspeed Altitude Reporting Facility
EDT Latitude Longitude Course Direction KTS MPH feet Rate Location/Type
Thu 05:18:58 AM 41.8667 -88.2500 124° Southeast 116 133 2,300  Level Chicago TRACON
Thu 05:19:58 AM 41.8500 -88.2167 124° Southeast 123 142 3,300 1,050 Climbing Chicago TRACON
Thu 05:20:58 AM 41.8167 -88.1833 143° Southeast 134 154 4,400 1,000 Climbing Chicago TRACON
Thu 05:21:58 AM 41.8000 -88.1333 114° Southeast 143 165 5,300 950 Climbing Chicago TRACON
Thu 05:22:58 AM 41.8167 -88.0833 66° East 145 167 6,300 1,000 Climbing Chicago TRACON
Thu 05:23:58 AM 41.8167 -88.0333 90° East 149 171 7,300 950 Climbing Chicago TRACON
Thu 05:24:58 AM 41.8167 -87.9667 90° East 152 175 8,200 850 Climbing Chicago TRACON
Thu 05:25:58 AM 41.8333 -87.9167 66° East 161 185 9,000 400 Climbing Chicago TRACON
Thu 05:26:58 AM 41.8333 -87.8500 90° East 200 230 9,000  Level Chicago TRACON
Thu 05:27:58 AM 41.8500 -87.7667 75° East 201 231 9,000  Level Chicago TRACON
Thu 05:28:58 AM 41.8500 -87.7000 90° East 201 231 9,000  Level Chicago TRACON
Thu 05:29:59 AM 41.8500 -87.6167 90° East 203 234 9,000  Level Chicago TRACON
Thu 05:30:59 AM 41.8667 -87.5500 71° East 201 231 9,000  Level Chicago TRACON
Thu 05:31:59 AM 41.8667 -87.4833 90° East 200 230 9,000 -2 Level Chicago TRACON
Thu 05:33:00 AM 41.8733 -87.4240 81° East  Level Estimated
Thu 05:40:00 AM 41.9181 -87.0155 81° East  Level Estimated
Thu 05:41:00 AM 41.9244 -86.9571 82° East  Level Estimated
Thu 05:42:00 AM 41.9306 -86.8986 82° East  Level Estimated
Thu 05:43:00 AM 41.9369 -86.8402 82° East  Level Estimated
Thu 05:44:00 AM 41.9431 -86.7817 82° East  Level Estimated
Thu 05:45:00 AM 41.9492 -86.7233 82° East  Level Estimated
Thu 05:46:00 AM 41.9553 -86.6648 82° East  Level Estimated
Thu 05:47:00 AM 41.9615 -86.6063 82° East  Level Estimated
Thu 05:48:00 AM 41.9675 -86.5478 82° East  Level Estimated
Thu 05:49:00 AM 41.9736 -86.4893 82° East  Level Estimated
Thu 05:50:00 AM 41.9796 -86.4308 82° East  Level Estimated
Thu 05:51:00 AM 41.9856 -86.3723 82° East  Level Estimated
Thu 05:52:00 AM 41.9916 -86.3138 82° East  Level Estimated
Thu 05:53:00 AM 41.9983 -86.2468 82° East  Level Estimated
Thu 05:54:00 AM 42.0051 -86.1799 82° East  Level Estimated
Thu 05:55:00 AM 42.0118 -86.1129 82° East  Level Estimated
Thu 05:56:00 AM 42.0184 -86.0459 82° East  Level Estimated
Thu 05:57:00 AM 42.0250 -85.9789 82° East  Level Estimated
Thu 05:58:00 AM 42.0316 -85.9119 82° East  Level Estimated
Thu 05:59:00 AM 42.0382 -85.8449 82° East  Level Estimated
Thu 06:00:00 AM 42.0447 -85.7779 83° East  Level Estimated
Thu 06:01:00 AM 42.0511 -85.7108 83° East  Level Estimated
Thu 06:02:00 AM 42.0575 -85.6438 83° East  Level Estimated
Thu 06:03:00 AM 42.0639 -85.5767 83° East  Level Estimated
Thu 06:04:00 AM 42.0703 -85.5096 83° East  Level Estimated
Thu 06:05:00 AM 42.0766 -85.4425 83° East  Level Estimated
Thu 06:06:00 AM 42.0828 -85.3754 83° East  Level Estimated
Thu 06:07:00 AM 42.0891 -85.3083 83° East  Level Estimated
Thu 06:08:00 AM 42.0953 -85.2411 83° East  Level Estimated
Thu 06:09:00 AM 42.1014 -85.1740 83° East  Level Estimated
Thu 06:10:00 AM 42.1075 -85.1068 83° East  Level Estimated
Thu 06:11:00 AM 42.1136 -85.0396 83° East  Level Estimated
Thu 06:11:47 AM 42.1567 -84.5331 83° East 198 228 8,900  Level Cleveland Center
Thu 06:12:00 AM 42.1196 -84.9725 83° East  Level Estimated
Thu 06:12:24 AM 42.1606 -84.4856 84° East 202 232 8,700  Level Cleveland Center
Thu 06:13:00 AM 42.1256 -84.9053 83° East  Level Estimated
Thu 06:13:24 AM 42.1694 -84.4075 81° East 210 242 8,300  Level Cleveland Center
Thu 06:14:00 AM 42.1316 -84.8380 83° East  Level Estimated
Thu 06:14:25 AM 42.1761 -84.3267 84° East 211 243 7,800  Level Cleveland Center
Thu 06:15:00 AM 42.1375 -84.7708 83° East  Level Estimated
Thu 06:15:26 AM 42.1806 -84.2514 85° East 206 237 7,500  Level Cleveland Center
Thu 06:16:00 AM 42.1433 -84.7036 83° East  Level Estimated
Thu 06:16:27 AM 42.1872 -84.1761 83° East 202 232 7,100  Level Cleveland Center
Thu 06:17:28 AM 42.1936 -84.1006 83° East 201 231 7,000 -94 Descending Cleveland Center
Thu 06:18:34 AM 42.2003 -84.0197 84° East 187 215 6,900 -248 Descending Cleveland Center
Thu 06:19:29 AM 42.2044 -83.9528 85° East 193 222 6,500 -672 Descending Cleveland Center
Thu 06:20:30 AM 42.2086 -83.8772 86° East 207 238 5,600 -836 Descending Cleveland Center
Thu 06:21:31 AM 42.2150 -83.7989 84° East 206 237 4,800 -787 Descending Cleveland Center
Thu 06:22:32 AM 42.2233 -83.7294 81° East 194 223 4,000 -942 Descending Cleveland Center
Thu 06:23:32 AM 42.2275 -83.6539 86° East 199 229 2,900 -756 Descending Cleveland Center
Thu 06:24:39 AM 42.2044 -83.5797 113° Southeast 184 212 2,400 -885 Descending Cleveland Center
Thu 06:25:34 AM 42.2281 -83.5444 48° Northeast 111 128 1,100 -1,418 Descending Cleveland Center

Login

Don't have an account? Register now (free) for customized features, flight alerts, and more!